createdAt,value
2023-03-26T00:01:58.897Z,7.90
2023-03-26T00:04:28.965Z,7.90
2023-03-26T00:06:57.952Z,7.80
2023-03-26T00:09:31.631Z,7.80
2023-03-26T00:12:02.064Z,7.80
2023-03-26T00:14:33.685Z,7.80
2023-03-26T00:17:05.843Z,7.80
2023-03-26T00:19:36.945Z,7.70
2023-03-26T00:22:07.785Z,7.70
2023-03-26T00:24:41.735Z,7.60
2023-03-26T00:27:12.985Z,7.60
2023-03-26T00:29:43.959Z,7.50
2023-03-26T00:32:13.987Z,7.50
2023-03-26T00:34:46.482Z,7.50
2023-03-26T00:37:15.743Z,7.50
2023-03-26T00:39:49.679Z,7.50
2023-03-26T00:42:21.484Z,7.60
2023-03-26T00:44:55.119Z,7.60
2023-03-26T00:47:24.691Z,7.60
2023-03-26T00:49:56.399Z,7.60
2023-03-26T00:52:29.360Z,7.60
2023-03-26T00:55:02.554Z,7.60
2023-03-26T00:57:36.053Z,7.50
2023-03-26T01:00:17.281Z,7.50
2023-03-26T01:02:47.427Z,7.50
2023-03-26T01:05:46.877Z,7.50
2023-03-26T01:08:28.249Z,7.50
2023-03-26T01:11:08.233Z,7.50
2023-03-26T01:13:41.686Z,7.50
2023-03-26T01:16:23.441Z,7.50
2023-03-26T01:18:54.517Z,7.50
2023-03-26T01:21:30.604Z,7.50
2023-03-26T01:24:05.378Z,7.50
2023-03-26T01:27:10.960Z,7.50
2023-03-26T01:29:48.664Z,7.50
2023-03-26T01:32:46.160Z,7.50
2023-03-26T01:35:31.982Z,7.50
2023-03-26T01:38:16.710Z,7.50
2023-03-26T01:40:56.590Z,7.50
2023-03-26T01:43:38.598Z,7.50
2023-03-26T01:46:12.630Z,7.50
2023-03-26T01:48:47.194Z,7.50
2023-03-26T01:51:29.448Z,7.60
2023-03-26T01:54:01.698Z,7.60
2023-03-26T01:56:45.451Z,7.60
2023-03-26T01:59:40.709Z,7.60
2023-03-26T02:02:14.977Z,7.60
2023-03-26T02:04:54.953Z,7.60
2023-03-26T02:07:35.637Z,7.60
2023-03-26T02:10:13.865Z,7.60
2023-03-26T02:12:47.238Z,7.60
2023-03-26T02:15:17.363Z,7.60
2023-03-26T02:17:49.894Z,7.60
2023-03-26T02:20:22.068Z,7.60
2023-03-26T02:22:52.576Z,7.60
2023-03-26T02:25:24.638Z,7.60
2023-03-26T02:27:57.775Z,7.60
2023-03-26T02:30:30.159Z,7.50
2023-03-26T02:33:01.631Z,7.50
2023-03-26T02:35:46.269Z,7.50
2023-03-26T02:38:16.647Z,7.50
2023-03-26T02:40:48.368Z,7.50
2023-03-26T02:43:21.232Z,7.50
2023-03-26T02:45:51.886Z,7.50
2023-03-26T02:48:43.731Z,7.50
2023-03-26T02:51:21.283Z,7.50
2023-03-26T02:53:59.626Z,7.60
2023-03-26T02:56:49.723Z,7.60
2023-03-26T02:59:28.694Z,7.60
2023-03-26T03:02:26.777Z,7.70
2023-03-26T03:05:01.717Z,7.70
2023-03-26T03:07:38.341Z,7.70
2023-03-26T03:10:11.438Z,7.70
2023-03-26T03:13:08.759Z,7.70
2023-03-26T03:15:40.443Z,7.70
2023-03-26T03:18:12.586Z,7.70
2023-03-26T03:20:44.122Z,7.70
2023-03-26T03:23:14.997Z,7.70
2023-03-26T03:25:44.901Z,7.80
2023-03-26T03:28:18.888Z,7.80
2023-03-26T03:30:54.212Z,7.80
2023-03-26T03:33:31.019Z,7.80
2023-03-26T03:36:01.453Z,7.80
2023-03-26T03:38:31.311Z,7.90
2023-03-26T03:41:03.900Z,7.90
2023-03-26T03:43:38.547Z,7.90
2023-03-26T03:46:17.287Z,7.90
2023-03-26T03:48:53.187Z,7.90
2023-03-26T03:51:29.716Z,7.90
2023-03-26T03:54:02.118Z,8.00
2023-03-26T03:56:49.811Z,8.00
2023-03-26T03:59:48.090Z,8.00
2023-03-26T04:02:26.853Z,7.90
2023-03-26T04:05:03.297Z,7.90
2023-03-26T04:07:34.703Z,7.90
2023-03-26T04:10:10.143Z,8.00
2023-03-26T04:13:00.736Z,8.00
2023-03-26T04:16:08.424Z,8.00
2023-03-26T04:18:40.803Z,8.00
2023-03-26T04:21:17.446Z,8.00
2023-03-26T04:23:49.293Z,8.00
2023-03-26T04:26:42.410Z,8.00
2023-03-26T04:29:19.501Z,8.00
2023-03-26T04:32:06.379Z,8.00
2023-03-26T04:34:37.809Z,8.00
2023-03-26T04:37:27.210Z,8.00
2023-03-26T04:40:15.506Z,8.00
2023-03-26T04:43:17.355Z,7.90
2023-03-26T04:46:06.114Z,7.90
2023-03-26T04:48:43.575Z,7.90
2023-03-26T04:51:18.786Z,7.90
2023-03-26T04:53:58.303Z,8.00
2023-03-26T04:56:48.839Z,8.00
2023-03-26T04:59:37.261Z,8.00
2023-03-26T05:02:14.233Z,8.00
2023-03-26T05:04:57.318Z,8.00
2023-03-26T05:07:32.251Z,8.00
2023-03-26T05:10:04.608Z,8.10
2023-03-26T05:12:41.026Z,8.10
2023-03-26T05:15:17.567Z,8.20
2023-03-26T05:18:00.998Z,8.20
2023-03-26T05:20:38.342Z,8.20
2023-03-26T05:23:13.738Z,8.30
2023-03-26T05:25:47.862Z,8.30
2023-03-26T05:28:24.569Z,8.40
2023-03-26T05:30:59.490Z,8.40
2023-03-26T05:33:33.463Z,8.40
2023-03-26T05:36:13.637Z,8.40
2023-03-26T05:38:50.368Z,8.40
2023-03-26T05:41:40.917Z,8.40
2023-03-26T05:44:12.274Z,8.40
2023-03-26T05:46:44.571Z,8.40
2023-03-26T05:49:24.267Z,8.40
2023-03-26T05:51:55.425Z,8.40
2023-03-26T05:54:39.301Z,8.40
2023-03-26T05:57:31.145Z,8.40
2023-03-26T06:00:22.396Z,8.40
2023-03-26T06:02:56.819Z,8.40
2023-03-26T06:05:47.085Z,8.40
2023-03-26T06:08:25.467Z,8.40
2023-03-26T06:11:06.063Z,8.40
2023-03-26T06:13:40.196Z,8.40
2023-03-26T06:16:27.757Z,8.50
2023-03-26T06:19:32.129Z,8.50
2023-03-26T06:22:15.404Z,8.50
2023-03-26T06:25:03.793Z,8.50
2023-03-26T06:27:52.862Z,8.60
2023-03-26T06:30:52.639Z,8.60
2023-03-26T06:33:42.666Z,8.60
2023-03-26T06:36:15.703Z,8.60
2023-03-26T06:38:45.893Z,8.60
2023-03-26T06:41:17.797Z,8.70
2023-03-26T06:44:06.596Z,8.70
2023-03-26T06:56:31.159Z,8.70
2023-03-26T07:54:29.444Z,8.60
2023-03-26T07:57:35.935Z,8.70
2023-03-26T08:00:34.692Z,8.80
2023-03-26T08:03:48.299Z,8.80
2023-03-26T08:06:40.679Z,8.80
2023-03-26T08:09:32.021Z,8.90
2023-03-26T08:12:41.588Z,9.00
2023-03-26T08:15:26.113Z,9.00
2023-03-26T08:18:07.089Z,9.00
2023-03-26T08:20:45.682Z,9.00
2023-03-26T08:23:26.068Z,9.00
2023-03-26T08:26:06.460Z,9.00
2023-03-26T08:29:07.007Z,9.00
2023-03-26T08:31:43.318Z,9.00
2023-03-26T08:34:16.267Z,9.10
2023-03-26T08:36:48.842Z,9.20
2023-03-26T08:39:23.065Z,9.30
2023-03-26T08:43:11.127Z,9.40
2023-03-26T08:46:31.175Z,9.60
2023-03-26T08:50:02.754Z,10.00
2023-03-26T08:53:22.938Z,10.20
2023-03-26T08:55:59.275Z,10.40
2023-03-26T08:59:30.810Z,10.60
2023-03-26T09:02:43.002Z,10.60
2023-03-26T09:06:05.475Z,10.80
2023-03-26T09:09:28.758Z,11.00
2023-03-26T09:13:17.555Z,11.00
2023-03-26T09:16:49.654Z,11.20
2023-03-26T09:20:09.526Z,11.40
2023-03-26T09:23:29.984Z,11.30
2023-03-26T09:26:44.262Z,11.10
2023-03-26T09:30:02.534Z,11.20
2023-03-26T09:33:34.247Z,11.50
2023-03-26T09:36:44.376Z,11.40
2023-03-26T09:39:45.840Z,11.40
2023-03-26T09:42:32.570Z,11.40
2023-03-26T09:45:38.059Z,11.60
2023-03-26T09:48:55.143Z,11.50
2023-03-26T09:51:50.956Z,11.50
2023-03-26T09:54:48.736Z,11.40
2023-03-26T09:57:49.564Z,11.50
2023-03-26T10:00:36.052Z,11.60
2023-03-26T10:03:43.167Z,11.70
2023-03-26T10:06:52.132Z,11.70
2023-03-26T10:09:59.477Z,11.70
2023-03-26T10:12:41.786Z,11.90
2023-03-26T10:15:34.138Z,12.20
2023-03-26T10:18:27.028Z,12.40
2023-03-26T10:21:10.077Z,12.50
2023-03-26T10:24:07.307Z,12.30
2023-03-26T10:27:26.379Z,12.20
2023-03-26T10:30:18.276Z,12.30
2023-03-26T10:33:03.547Z,12.50
2023-03-26T10:36:29.908Z,12.70
2023-03-26T10:39:49.062Z,12.90
2023-03-26T10:42:46.078Z,13.20
2023-03-26T10:45:33.433Z,13.60
2023-03-26T10:48:51.322Z,14.00
2023-03-26T10:51:52.260Z,14.10
2023-03-26T10:54:51.104Z,14.00
2023-03-26T10:57:47.055Z,13.70
2023-03-26T11:00:26.322Z,13.10
2023-03-26T11:03:29.062Z,12.40
2023-03-26T11:06:20.200Z,11.90
2023-03-26T11:09:02.087Z,11.50
2023-03-26T11:11:46.070Z,11.30
2023-03-26T11:14:34.333Z,11.30
2023-03-26T11:17:40.107Z,11.30
2023-03-26T11:20:41.207Z,11.20
2023-03-26T11:23:35.192Z,11.10
2023-03-26T11:26:20.391Z,10.90
2023-03-26T11:29:32.717Z,10.90
2023-03-26T11:32:09.188Z,10.70
2023-03-26T11:34:47.464Z,10.60
2023-03-26T11:37:29.196Z,10.60
2023-03-26T11:40:06.992Z,10.80
2023-03-26T11:42:40.931Z,11.50
2023-03-26T11:45:23.304Z,12.30
2023-03-26T11:50:51.788Z,14.30
2023-03-26T11:53:29.540Z,15.60
2023-03-26T11:56:09.718Z,16.00
2023-03-26T11:58:49.150Z,16.50
2023-03-26T12:01:31.267Z,17.60
2023-03-26T12:04:14.389Z,18.40
2023-03-26T12:06:57.311Z,19.20
2023-03-26T12:09:29.086Z,19.30
2023-03-26T12:12:06.277Z,19.40
2023-03-26T12:14:44.937Z,19.30
2023-03-26T12:17:33.163Z,19.40
2023-03-26T12:20:33.158Z,20.20
2023-03-26T12:23:06.126Z,20.30
2023-03-26T12:25:41.582Z,20.00
2023-03-26T12:28:22.473Z,19.30
2023-03-26T12:31:04.006Z,18.10
2023-03-26T12:33:39.404Z,17.30
2023-03-26T12:36:26.867Z,16.50
2023-03-26T12:39:17.128Z,15.70
2023-03-26T12:44:51.171Z,15.00
2023-03-26T12:44:58.763Z,14.10
2023-03-26T12:48:00.393Z,13.60
2023-03-26T12:50:39.513Z,13.00
2023-03-26T12:53:44.043Z,12.70
2023-03-26T12:56:28.781Z,12.70
2023-03-26T12:59:41.539Z,13.30
2023-03-26T13:02:45.585Z,15.10
2023-03-26T13:05:47.534Z,16.80
2023-03-26T13:08:54.333Z,18.70
2023-03-26T13:11:45.261Z,20.10
2023-03-26T13:14:50.764Z,21.10
2023-03-26T13:17:55.262Z,22.20
2023-03-26T13:20:45.290Z,23.30
2023-03-26T13:23:33.923Z,22.90
2023-03-26T13:26:15.099Z,22.80
2023-03-26T13:28:58.481Z,22.50
2023-03-26T13:31:34.195Z,21.30
2023-03-26T13:34:20.938Z,19.70
2023-03-26T13:37:10.472Z,18.20
2023-03-26T13:39:59.335Z,16.80
2023-03-26T13:42:49.680Z,16.10
2023-03-26T13:45:44.637Z,15.50
2023-03-26T13:48:23.483Z,15.10
2023-03-26T13:54:03.145Z,14.50
2023-03-26T13:56:43.805Z,14.00
2023-03-26T13:59:22.567Z,13.70
2023-03-26T14:02:00.022Z,13.50
2023-03-26T14:04:39.376Z,13.50
2023-03-26T14:07:37.382Z,13.30
2023-03-26T14:10:15.049Z,13.00
2023-03-26T14:12:58.473Z,12.60
2023-03-26T14:15:39.126Z,11.80
2023-03-26T14:18:42.302Z,10.60
2023-03-26T14:25:09.089Z,9.20
2023-03-26T14:28:29.344Z,8.70
2023-03-26T14:34:38.834Z,8.00
2023-03-26T14:37:55.216Z,7.80
2023-03-26T14:40:50.034Z,7.80
2023-03-26T14:44:20.834Z,8.00
2023-03-26T14:47:14.770Z,7.90
2023-03-26T14:50:44.064Z,7.90
2023-03-26T14:53:30.692Z,7.90
2023-03-26T14:57:04.922Z,7.80
2023-03-26T15:00:24.893Z,7.80
2023-03-26T15:03:30.060Z,7.70
2023-03-26T15:06:52.067Z,7.80
2023-03-26T15:10:29.465Z,7.70
2023-03-26T15:13:48.460Z,7.70
2023-03-26T15:17:12.036Z,7.80
2023-03-26T15:20:32.945Z,7.80
2023-03-26T15:23:39.494Z,7.90
2023-03-26T15:27:02.232Z,8.10
2023-03-26T15:30:25.999Z,8.30
2023-03-26T15:33:48.099Z,8.40
2023-03-26T15:37:21.378Z,8.50
2023-03-26T15:40:24.485Z,8.50
2023-03-26T15:43:11.461Z,8.50
2023-03-26T15:45:48.172Z,8.60
2023-03-26T15:49:01.390Z,8.70
2023-03-26T15:51:55.929Z,8.70
2023-03-26T15:54:34.055Z,8.80
2023-03-26T15:57:28.050Z,8.80
2023-03-26T16:00:23.434Z,8.80
2023-03-26T16:03:28.429Z,8.70
2023-03-26T16:06:41.855Z,8.80
2023-03-26T16:09:42.880Z,9.00
2023-03-26T16:12:33.941Z,9.10
2023-03-26T16:15:27.572Z,9.00
2023-03-26T16:18:36.789Z,8.90
2023-03-26T16:22:00.727Z,8.80
2023-03-26T16:24:35.635Z,8.60
2023-03-26T16:27:30.744Z,8.60
2023-03-26T16:30:29.539Z,8.50
2023-03-26T16:33:16.632Z,8.50
2023-03-26T16:36:19.539Z,8.60
2023-03-26T16:39:14.345Z,8.60
2023-03-26T16:42:32.536Z,8.60
2023-03-26T16:45:24.140Z,8.70
2023-03-26T16:48:10.463Z,8.70
2023-03-26T16:50:52.189Z,8.60
2023-03-26T16:53:42.278Z,8.60
2023-03-26T16:56:29.271Z,8.50
2023-03-26T16:59:11.299Z,8.40
2023-03-26T17:01:50.189Z,8.40
2023-03-26T17:04:24.267Z,8.20
2023-03-26T17:07:18.199Z,8.10
2023-03-26T17:10:06.106Z,8.00
2023-03-26T17:12:46.287Z,8.00
2023-03-26T17:15:35.511Z,8.00
2023-03-26T17:18:32.981Z,8.00
2023-03-26T17:21:12.959Z,8.00
2023-03-26T17:24:15.016Z,7.90
2023-03-26T17:27:14.871Z,7.90
2023-03-26T17:30:25.660Z,7.90
2023-03-26T17:33:00.681Z,7.80
2023-03-26T17:35:47.230Z,7.80
2023-03-26T17:39:19.754Z,7.80
2023-03-26T17:42:20.320Z,7.80
2023-03-26T17:44:53.735Z,7.80
2023-03-26T17:47:40.308Z,7.80
2023-03-26T17:50:20.555Z,7.80
2023-03-26T17:52:59.209Z,7.80
2023-03-26T17:55:33.492Z,7.80
2023-03-26T17:58:07.133Z,7.80
2023-03-26T18:00:44.277Z,7.80
2023-03-26T18:03:23.635Z,7.90
2023-03-26T18:06:10.370Z,7.80
2023-03-26T18:09:09.731Z,7.80
2023-03-26T18:12:17.948Z,7.70
2023-03-26T18:15:38.352Z,7.70
2023-03-26T18:18:18.749Z,7.60
2023-03-26T18:20:51.869Z,7.50
2023-03-26T18:23:32.952Z,7.40
2023-03-26T18:26:17.751Z,7.30
2023-03-26T18:28:55.712Z,7.10
2023-03-26T18:31:28.795Z,7.00
2023-03-26T18:34:15.639Z,6.90
2023-03-26T18:36:47.864Z,6.80
2023-03-26T18:39:21.447Z,6.80
2023-03-26T18:41:53.015Z,6.70
2023-03-26T18:44:24.733Z,6.60
2023-03-26T18:46:57.068Z,6.50
2023-03-26T18:49:32.676Z,6.50
2023-03-26T18:52:03.556Z,6.40
2023-03-26T18:54:37.809Z,6.30
2023-03-26T18:57:23.270Z,6.40
2023-03-26T18:59:58.279Z,6.30
2023-03-26T19:02:29.122Z,6.20
2023-03-26T19:05:04.588Z,6.20
2023-03-26T19:07:35.966Z,6.20
2023-03-26T19:10:08.290Z,6.20
2023-03-26T19:12:40.933Z,6.20
2023-03-26T19:15:18.395Z,6.20
2023-03-26T19:17:53.606Z,6.20
2023-03-26T19:20:29.768Z,6.20
2023-03-26T19:23:01.400Z,6.20
2023-03-26T19:25:39.807Z,6.20
2023-03-26T19:28:19.621Z,6.20
2023-03-26T19:30:58.313Z,6.20
2023-03-26T19:33:37.821Z,6.20
2023-03-26T19:36:22.524Z,6.30
2023-03-26T19:38:54.749Z,6.20
2023-03-26T19:41:27.797Z,6.30
2023-03-26T19:44:02.941Z,6.30
2023-03-26T19:46:53.695Z,6.40
2023-03-26T19:49:34.600Z,6.40
2023-03-26T19:52:17.766Z,6.40
2023-03-26T19:54:59.394Z,6.40
2023-03-26T19:57:35.329Z,6.40
2023-03-26T20:00:13.934Z,6.50
2023-03-26T20:02:46.558Z,6.60
2023-03-26T20:05:23.671Z,6.50
2023-03-26T20:08:00.940Z,6.50
2023-03-26T20:10:31.388Z,6.50
2023-03-26T20:13:02.385Z,6.50
2023-03-26T20:15:39.214Z,6.60
2023-03-26T20:18:10.342Z,6.60
2023-03-26T20:20:42.253Z,6.70
2023-03-26T20:23:19.564Z,6.80
2023-03-26T20:25:55.494Z,6.80
2023-03-26T20:28:25.527Z,6.90
2023-03-26T20:30:55.557Z,7.00
2023-03-26T20:33:29.302Z,7.00
2023-03-26T20:36:02.433Z,7.00
2023-03-26T20:38:39.614Z,7.10
2023-03-26T20:41:17.866Z,7.10
2023-03-26T20:43:49.217Z,7.10
2023-03-26T20:46:22.622Z,7.10
2023-03-26T20:48:58.690Z,7.10
2023-03-26T20:51:30.829Z,7.20
2023-03-26T20:54:03.218Z,7.20
2023-03-26T20:56:38.977Z,7.20
2023-03-26T20:59:12.451Z,7.20
2023-03-26T21:01:45.662Z,7.20
2023-03-26T21:04:17.834Z,7.30
2023-03-26T21:06:50.122Z,7.30
2023-03-26T21:09:25.785Z,7.20
2023-03-26T21:12:06.629Z,7.30
2023-03-26T21:14:42.170Z,7.30
2023-03-26T21:17:19.258Z,7.30
2023-03-26T21:19:52.892Z,7.30
2023-03-26T21:22:36.155Z,7.30
2023-03-26T21:25:34.674Z,7.30
2023-03-26T21:28:41.986Z,7.30
2023-03-26T21:31:18.966Z,7.20
2023-03-26T21:33:52.460Z,7.20
2023-03-26T21:36:24.881Z,7.10
2023-03-26T21:38:57.385Z,7.10
2023-03-26T21:41:43.034Z,7.00
2023-03-26T21:44:17.166Z,7.00
2023-03-26T21:46:52.034Z,7.00
2023-03-26T21:49:24.387Z,7.00
2023-03-26T21:51:56.219Z,7.00
2023-03-26T21:54:30.688Z,7.00
2023-03-26T21:57:26.127Z,7.00
2023-03-26T22:00:15.174Z,6.90
2023-03-26T22:03:08.766Z,6.90
2023-03-26T22:05:51.524Z,6.80
2023-03-26T22:08:34.093Z,6.80
2023-03-26T22:11:05.630Z,6.80
2023-03-26T22:13:39.120Z,6.80
2023-03-26T22:16:12.821Z,6.80
2023-03-26T22:18:44.526Z,6.70
2023-03-26T22:21:17.805Z,6.70
2023-03-26T22:23:53.457Z,6.70
2023-03-26T22:26:29.354Z,6.70
2023-03-26T22:29:03.694Z,6.60
2023-03-26T22:31:35.663Z,6.60
2023-03-26T22:34:11.165Z,6.50
2023-03-26T22:36:45.535Z,6.50
2023-03-26T22:39:19.555Z,6.50
2023-03-26T22:41:51.420Z,6.50
2023-03-26T22:44:27.483Z,6.50
2023-03-26T22:47:00.145Z,6.50
2023-03-26T22:49:33.224Z,6.50
2023-03-26T22:52:08.237Z,6.50
2023-03-26T22:54:41.370Z,6.50
2023-03-26T22:57:13.866Z,6.50
2023-03-26T22:59:46.314Z,6.50
2023-03-26T23:02:19.244Z,6.50
2023-03-26T23:04:54.049Z,6.60
2023-03-26T23:07:28.206Z,6.60
2023-03-26T23:09:58.185Z,6.60
2023-03-26T23:12:30.895Z,6.60
2023-03-26T23:15:06.443Z,6.60
2023-03-26T23:17:39.988Z,6.60
2023-03-26T23:20:15.647Z,6.60
2023-03-26T23:22:48.675Z,6.60
2023-03-26T23:25:20.973Z,6.60
2023-03-26T23:27:52.452Z,6.60
2023-03-26T23:30:26.731Z,6.60
2023-03-26T23:32:59.270Z,6.60
2023-03-26T23:35:31.854Z,6.60
2023-03-26T23:38:02.540Z,6.60
2023-03-26T23:40:35.391Z,6.60
2023-03-26T23:43:08.193Z,6.60
2023-03-26T23:45:42.686Z,6.50
2023-03-26T23:48:14.634Z,6.60
2023-03-26T23:50:48.618Z,6.50
2023-03-26T23:53:19.514Z,6.40
2023-03-26T23:55:52.560Z,6.40
2023-03-26T23:58:25.521Z,6.40
